createdAt,value
2022-12-25T16:20:28.929Z,30.97
2022-12-25T16:23:21.029Z,43.03
2022-12-25T18:30:02.095Z,43.10
2022-12-25T18:33:23.747Z,45.57
2022-12-25T18:57:23.485Z,38.27
2022-12-25T19:36:20.303Z,35.10
2022-12-25T20:10:03.077Z,34.60
2022-12-25T21:39:39.864Z,34.88
2022-12-25T21:49:42.910Z,38.67
2022-12-25T21:52:36.283Z,37.03
2022-12-25T21:58:33.135Z,37.37
2022-12-25T22:01:51.604Z,26.43
2022-12-25T22:08:41.694Z,28.40
2022-12-25T22:15:50.027Z,28.77
2022-12-25T22:18:58.577Z,25.70
2022-12-25T22:21:51.033Z,25.70
2022-12-25T22:24:40.478Z,21.83
2022-12-25T22:27:33.300Z,21.80
2022-12-25T22:30:25.385Z,21.27
2022-12-25T22:33:17.880Z,25.37
2022-12-25T22:36:08.849Z,19.73
2022-12-25T22:39:01.576Z,20.93
2022-12-25T22:41:51.216Z,17.80
2022-12-25T22:44:41.052Z,19.20
2022-12-25T22:47:30.323Z,20.37
2022-12-25T22:50:19.768Z,16.20
2022-12-25T22:53:09.634Z,19.80
2022-12-25T22:56:01.733Z,19.70
2022-12-25T22:58:52.353Z,18.70
2022-12-25T23:02:07.693Z,12.23
2022-12-25T23:05:03.690Z,20.53
2022-12-25T23:07:53.032Z,17.58
2022-12-25T23:10:42.651Z,15.83
2022-12-25T23:13:53.951Z,18.50
2022-12-25T23:16:45.214Z,21.67
2022-12-25T23:19:54.878Z,16.23
2022-12-25T23:23:01.464Z,18.90
2022-12-25T23:26:07.742Z,13.27
2022-12-25T23:29:16.273Z,15.07
2022-12-25T23:32:06.635Z,19.80
2022-12-25T23:34:56.762Z,16.33
2022-12-25T23:37:47.425Z,17.05
2022-12-25T23:40:39.597Z,12.10
